KDYL

Doylestown Airport

Doylestown, Pennsylvania, USA
METAR KDYL 222054Z AUTO 19007KT 150V210 10SM FEW080 11/00 A3014 RMK AO2 SLP211 T01060000 56014
Observed Flight Rules
Oct-22 @ 20:54 UTC (19 minutes ago) Visual Flight Rules
Wind Visibility Clouds
190° at 7 knots 10 miles
  • Few at 8,000' AGL
Temperatures Readings
Current 11°C / 52°F
Dewpoint 0°C / 32°F
Humidity 47%
Altimeter 30.14" Hg
Pressure 1021.1 hPa
Elevation 117
METAR KDYL 222054Z AUTO 19007KT 150V210 10SM FEW080 11/00 A3014 RMK AO2 SLP211 T01060000 56014
Observed Flight Rules
Oct-22 @ 20:54 UTC
(19 minutes ago)
VFR
Wind Visibility
190° at 7 knots 10 miles
Clouds
  • Few at 8,000' AGL
Temperature Dewpoint
11°C / 52°F 0°C / 32°F
Humidity Altimeter Pressure
47% 30.14" Hg 1021.1 hPa